createdAt,value
2023-01-27T00:00:31.902Z,3.60
2023-01-27T00:01:31.917Z,3.58
2023-01-27T00:02:31.925Z,3.61
2023-01-27T00:03:31.943Z,3.51
2023-01-27T00:04:31.844Z,3.54
2023-01-27T00:05:31.862Z,3.50
2023-01-27T00:06:31.843Z,3.54
2023-01-27T00:07:31.852Z,3.52
2023-01-27T00:09:43.582Z,3.57
2023-01-27T00:10:43.549Z,3.57
2023-01-27T00:11:44.347Z,3.54
2023-01-27T00:12:43.500Z,3.51
2023-01-27T00:13:44.813Z,3.48
2023-01-27T00:14:44.822Z,3.48
2023-01-27T00:15:43.536Z,3.54
2023-01-27T00:16:43.526Z,3.54
2023-01-27T00:17:45.306Z,3.58
2023-01-27T00:18:44.297Z,3.57
2023-01-27T00:19:44.282Z,3.60
2023-01-27T00:20:45.340Z,3.54
2023-01-27T00:21:44.446Z,3.65
2023-01-27T00:22:43.374Z,3.69
2023-01-27T00:23:46.300Z,3.61
2023-01-27T00:24:43.407Z,3.66
2023-01-27T00:25:43.381Z,3.62
2023-01-27T00:26:44.329Z,3.65
2023-01-27T00:27:44.267Z,3.66
2023-01-27T00:28:43.306Z,3.65
2023-01-27T00:29:43.314Z,3.54
2023-01-27T00:30:43.320Z,3.68
2023-01-27T00:31:44.550Z,3.62
2023-01-27T00:32:43.304Z,3.68
2023-01-27T00:33:43.283Z,3.61
2023-01-27T00:34:43.286Z,3.61
2023-01-27T00:35:43.284Z,3.72
2023-01-27T00:36:43.270Z,3.69
2023-01-27T00:37:43.361Z,3.62
2023-01-27T00:38:43.379Z,3.72
2023-01-27T00:39:43.220Z,3.69
2023-01-27T00:40:43.215Z,3.68
2023-01-27T00:41:48.302Z,3.60
2023-01-27T00:42:43.218Z,3.60
2023-01-27T00:43:43.187Z,3.69
2023-01-27T00:44:43.143Z,3.68
2023-01-27T00:45:43.174Z,3.70
2023-01-27T00:46:43.261Z,3.68
2023-01-27T00:48:04.111Z,3.73
2023-01-27T00:48:43.119Z,3.68
2023-01-27T00:49:43.115Z,3.65
2023-01-27T00:50:43.100Z,3.57
2023-01-27T00:51:43.123Z,3.54
2023-01-27T00:52:43.140Z,3.45
2023-01-27T00:53:43.087Z,3.51
2023-01-27T00:54:43.056Z,3.62
2023-01-27T00:55:43.034Z,3.48
2023-01-27T00:56:43.019Z,3.51
2023-01-27T00:57:43.031Z,3.51
2023-01-27T00:58:43.005Z,3.51
2023-01-27T00:59:43.005Z,3.48
2023-01-27T01:00:42.991Z,3.48
2023-01-27T01:01:43.014Z,3.51
2023-01-27T01:02:43.044Z,3.52
2023-01-27T01:03:42.953Z,3.51
2023-01-27T01:05:15.847Z,3.54
2023-01-27T01:05:42.937Z,3.54
2023-01-27T01:06:42.899Z,3.50
2023-01-27T01:07:42.904Z,3.52
2023-01-27T01:08:42.951Z,3.51
2023-01-27T01:09:42.888Z,3.54
2023-01-27T01:10:42.869Z,3.50
2023-01-27T01:11:42.857Z,3.52
2023-01-27T01:12:42.851Z,3.52
2023-01-27T01:13:42.865Z,3.45
2023-01-27T01:14:42.851Z,3.47
2023-01-27T01:15:43.844Z,3.52
2023-01-27T01:16:42.850Z,3.51
2023-01-27T01:17:42.882Z,3.54
2023-01-27T01:18:42.793Z,3.47
2023-01-27T01:19:42.865Z,3.48
2023-01-27T01:20:42.796Z,3.48
2023-01-27T01:21:42.792Z,3.36
2023-01-27T01:22:42.765Z,3.36
2023-01-27T01:23:42.731Z,3.36
2023-01-27T01:24:42.827Z,3.39
2023-01-27T01:25:42.772Z,3.35
2023-01-27T01:26:43.324Z,3.45
2023-01-27T01:27:42.719Z,3.48
2023-01-27T01:28:42.714Z,3.52
2023-01-27T01:29:42.735Z,3.42
2023-01-27T01:30:42.730Z,3.39
2023-01-27T01:31:42.698Z,3.45
2023-01-27T01:32:42.660Z,3.43
2023-01-27T01:33:42.641Z,3.36
2023-01-27T01:34:42.673Z,3.33
2023-01-27T01:35:42.650Z,3.36
2023-01-27T01:36:42.590Z,3.32
2023-01-27T01:37:42.575Z,3.33
2023-01-27T01:38:42.603Z,3.43
2023-01-27T01:39:42.585Z,3.45
2023-01-27T01:40:42.815Z,3.45
2023-01-27T01:41:42.533Z,3.54
2023-01-27T01:42:42.534Z,3.51
2023-01-27T01:43:42.534Z,3.48
2023-01-27T01:44:42.529Z,3.40
2023-01-27T01:45:43.304Z,3.33
2023-01-27T01:46:42.539Z,3.43
2023-01-27T01:47:42.525Z,3.33
2023-01-27T01:48:42.490Z,3.33
2023-01-27T01:49:42.475Z,3.33
2023-01-27T01:50:42.815Z,3.42
2023-01-27T01:51:42.455Z,3.33
2023-01-27T01:52:42.451Z,3.29
2023-01-27T01:53:42.448Z,3.33
2023-01-27T01:54:42.428Z,3.42
2023-01-27T01:55:43.278Z,3.32
2023-01-27T01:56:42.399Z,3.48
2023-01-27T01:57:42.423Z,3.47
2023-01-27T01:59:42.409Z,3.40
2023-01-27T02:00:42.463Z,3.42
2023-01-27T02:01:42.339Z,3.48
2023-01-27T02:02:42.659Z,3.42
2023-01-27T02:03:42.314Z,3.40
2023-01-27T02:04:42.311Z,3.33
2023-01-27T02:05:42.281Z,3.36
2023-01-27T02:06:42.330Z,3.35
2023-01-27T02:07:42.284Z,3.32
2023-01-27T02:08:42.281Z,3.39
2023-01-27T02:09:42.239Z,3.36
2023-01-27T02:10:42.233Z,3.40
2023-01-27T02:11:43.219Z,3.48
2023-01-27T02:12:42.214Z,3.31
2023-01-27T02:13:42.213Z,3.43
2023-01-27T02:14:42.227Z,3.40
2023-01-27T02:16:58.055Z,3.40
2023-01-27T02:17:57.979Z,3.45
2023-01-27T02:18:59.737Z,3.32
2023-01-27T02:19:58.006Z,3.35
2023-01-27T02:20:57.912Z,3.32
2023-01-27T02:21:57.980Z,3.32
2023-01-27T02:22:58.681Z,3.31
2023-01-27T02:23:58.815Z,3.39
2023-01-27T02:26:11.532Z,3.32
2023-01-27T02:27:11.499Z,3.40
2023-01-27T02:28:11.466Z,3.39
2023-01-27T02:29:12.409Z,3.45
2023-01-27T02:30:11.919Z,3.51
2023-01-27T02:31:11.615Z,3.43
2023-01-27T02:32:11.424Z,3.43
2023-01-27T02:33:11.403Z,3.48
2023-01-27T02:34:12.513Z,3.33
2023-01-27T02:35:11.869Z,3.35
2023-01-27T02:36:11.377Z,3.40
2023-01-27T02:37:11.389Z,3.31
2023-01-27T02:38:11.338Z,3.32
2023-01-27T02:39:11.323Z,3.32
2023-01-27T02:40:11.374Z,3.35
2023-01-27T02:41:11.316Z,3.40
2023-01-27T02:42:11.333Z,3.33
2023-01-27T02:44:22.015Z,3.45
2023-01-27T02:45:22.018Z,3.45
2023-01-27T02:46:22.861Z,3.40
2023-01-27T02:47:21.999Z,3.35
2023-01-27T02:48:21.950Z,3.31
2023-01-27T02:49:21.910Z,3.39
2023-01-27T02:50:21.993Z,3.29
2023-01-27T02:51:21.910Z,3.36
2023-01-27T02:52:21.899Z,3.40
2023-01-27T02:53:21.873Z,3.29
2023-01-27T02:54:27.329Z,3.40
2023-01-27T02:55:21.859Z,3.36
2023-01-27T02:56:21.844Z,3.39
2023-01-27T02:57:21.863Z,3.36
2023-01-27T02:58:21.806Z,3.35
2023-01-27T02:59:21.865Z,3.43
2023-01-27T03:00:21.794Z,3.48
2023-01-27T03:01:21.830Z,3.43
2023-01-27T03:02:21.827Z,3.40
2023-01-27T03:03:21.821Z,3.47
2023-01-27T03:04:21.766Z,3.32
2023-01-27T03:05:21.756Z,3.29
2023-01-27T03:06:21.737Z,3.40
2023-01-27T03:07:21.744Z,3.36
2023-01-27T03:08:21.722Z,3.29
2023-01-27T03:09:21.727Z,3.33
2023-01-27T03:10:21.722Z,3.35
2023-01-27T03:11:21.692Z,3.36
2023-01-27T03:12:21.696Z,3.32
2023-01-27T03:13:21.664Z,3.40
2023-01-27T03:14:21.673Z,3.47
2023-01-27T03:15:21.629Z,3.36
2023-01-27T03:16:21.676Z,3.36
2023-01-27T03:17:21.697Z,3.35
2023-01-27T03:18:21.617Z,3.24
2023-01-27T03:19:21.614Z,3.24
2023-01-27T03:20:21.609Z,3.21
2023-01-27T03:21:21.677Z,3.18
2023-01-27T03:22:21.627Z,3.29
2023-01-27T03:23:21.560Z,3.21
2023-01-27T03:24:21.634Z,3.33
2023-01-27T03:25:21.541Z,3.39
2023-01-27T03:28:04.508Z,3.36
2023-01-27T03:29:02.548Z,3.39
2023-01-27T03:30:03.553Z,3.40
2023-01-27T03:31:01.693Z,3.39
2023-01-27T03:32:04.055Z,3.45
2023-01-27T03:33:01.597Z,3.35
2023-01-27T03:34:02.500Z,3.36
2023-01-27T03:35:02.019Z,3.33
2023-01-27T03:36:02.511Z,3.39
2023-01-27T03:37:02.067Z,3.36
2023-01-27T03:38:01.534Z,3.32
2023-01-27T03:39:01.484Z,3.24
2023-01-27T03:40:01.530Z,3.28
2023-01-27T03:41:01.983Z,3.23
2023-01-27T03:42:01.525Z,3.29
2023-01-27T03:43:01.448Z,3.29
2023-01-27T03:44:01.419Z,3.26
2023-01-27T03:46:27.589Z,3.18
2023-01-27T03:47:27.018Z,3.15
2023-01-27T03:48:27.020Z,3.17
2023-01-27T03:49:27.027Z,3.15
2023-01-27T03:50:26.991Z,3.21
2023-01-27T03:51:53.698Z,3.24
2023-01-27T03:52:27.006Z,3.20
2023-01-27T03:53:27.156Z,3.17
2023-01-27T03:56:00.471Z,3.18
2023-01-27T03:56:58.242Z,3.23
2023-01-27T03:57:58.976Z,3.21
2023-01-27T03:58:58.159Z,3.24
2023-01-27T04:00:02.976Z,3.33
2023-01-27T04:00:58.887Z,3.24
2023-01-27T04:01:58.151Z,3.32
2023-01-27T04:02:58.167Z,3.24
2023-01-27T04:03:58.084Z,3.17
2023-01-27T04:04:58.120Z,3.17
2023-01-27T04:05:59.929Z,3.20
2023-01-27T04:06:58.079Z,3.20
2023-01-27T04:07:59.084Z,3.15
2023-01-27T04:08:58.042Z,3.21
2023-01-27T04:09:58.103Z,3.13
2023-01-27T04:10:59.995Z,3.10
2023-01-27T04:11:58.130Z,3.10
2023-01-27T04:12:58.015Z,3.14
2023-01-27T04:13:58.068Z,3.14
2023-01-27T04:15:20.985Z,3.08
2023-01-27T04:15:58.256Z,3.21
2023-01-27T04:16:59.093Z,3.10
2023-01-27T04:17:58.049Z,3.14
2023-01-27T04:18:57.992Z,3.10
2023-01-27T04:19:58.694Z,3.17
2023-01-27T04:20:59.093Z,3.18
2023-01-27T04:21:58.101Z,3.26
2023-01-27T04:22:58.076Z,3.23
2023-01-27T04:23:58.014Z,3.24
2023-01-27T04:24:58.077Z,3.10
2023-01-27T04:25:58.996Z,3.18
2023-01-27T04:26:57.929Z,3.06
2023-01-27T04:27:58.025Z,3.05
2023-01-27T04:28:57.891Z,3.10
2023-01-27T04:29:58.001Z,3.05
2023-01-27T04:30:57.915Z,3.05
2023-01-27T04:31:58.195Z,3.06
2023-01-27T04:32:57.817Z,3.17
2023-01-27T04:33:57.905Z,3.15
2023-01-27T04:34:57.882Z,3.08
2023-01-27T04:35:57.958Z,3.10
2023-01-27T04:36:57.789Z,3.08
2023-01-27T04:37:57.805Z,3.11
2023-01-27T04:38:57.829Z,2.99
2023-01-27T04:39:57.747Z,3.10
2023-01-27T04:40:57.763Z,3.05
2023-01-27T04:41:57.946Z,2.96
2023-01-27T04:42:57.768Z,3.05
2023-01-27T04:43:57.701Z,3.06
2023-01-27T04:44:57.688Z,3.08
2023-01-27T04:45:57.790Z,3.06
2023-01-27T04:46:58.465Z,3.10
2023-01-27T04:47:57.675Z,3.11
2023-01-27T04:48:57.650Z,3.06
2023-01-27T04:49:57.679Z,3.14
2023-01-27T04:50:57.607Z,3.13
2023-01-27T04:51:57.641Z,3.11
2023-01-27T04:52:57.614Z,3.15
2023-01-27T04:54:00.010Z,3.06
2023-01-27T04:54:57.657Z,3.17
2023-01-27T04:55:57.692Z,3.17
2023-01-27T04:56:57.835Z,3.20
2023-01-27T04:57:57.667Z,3.20
2023-01-27T04:58:57.699Z,3.18
2023-01-27T04:59:57.988Z,3.24
2023-01-27T05:00:57.598Z,3.17
2023-01-27T05:01:58.768Z,3.08
2023-01-27T05:02:57.508Z,3.06
2023-01-27T05:03:57.724Z,3.06
2023-01-27T05:04:58.567Z,3.14
2023-01-27T05:05:57.681Z,3.13
2023-01-27T05:06:57.560Z,3.10
2023-01-27T05:09:41.070Z,3.24
2023-01-27T05:10:40.999Z,3.10
2023-01-27T05:11:42.887Z,3.13
2023-01-27T05:12:40.935Z,3.06
2023-01-27T05:13:40.928Z,3.18
2023-01-27T05:14:40.926Z,3.14
2023-01-27T05:15:41.976Z,3.18
2023-01-27T05:16:41.005Z,3.24
2023-01-27T05:17:41.943Z,3.14
2023-01-27T05:18:40.869Z,3.28
2023-01-27T05:19:40.888Z,3.18
2023-01-27T05:20:40.852Z,3.06
2023-01-27T05:21:41.931Z,3.18
2023-01-27T05:22:41.850Z,3.21
2023-01-27T05:23:40.878Z,3.17
2023-01-27T05:24:40.860Z,3.20
2023-01-27T05:25:40.873Z,3.11
2023-01-27T05:26:40.851Z,3.11
2023-01-27T05:27:40.932Z,3.15
2023-01-27T05:28:41.086Z,3.05
2023-01-27T05:29:40.798Z,3.20
2023-01-27T05:30:40.863Z,3.08
2023-01-27T05:31:40.897Z,3.03
2023-01-27T05:32:40.793Z,3.17
2023-01-27T05:33:40.809Z,3.15
2023-01-27T05:34:40.833Z,3.13
2023-01-27T05:35:40.821Z,3.17
2023-01-27T05:36:40.939Z,3.06
2023-01-27T05:37:41.602Z,3.13
2023-01-27T05:38:40.787Z,3.14
2023-01-27T05:39:40.824Z,3.17
2023-01-27T05:40:40.712Z,3.13
2023-01-27T05:41:41.147Z,3.05
2023-01-27T05:42:40.791Z,3.13
2023-01-27T05:43:40.768Z,3.17
2023-01-27T05:44:40.625Z,3.21
2023-01-27T05:45:41.498Z,3.08
2023-01-27T05:46:40.666Z,3.08
2023-01-27T05:47:41.418Z,3.05
2023-01-27T05:48:40.646Z,3.11
2023-01-27T05:49:41.389Z,3.08
2023-01-27T05:50:40.592Z,3.03
2023-01-27T05:51:40.751Z,3.06
2023-01-27T05:52:40.555Z,3.06
2023-01-27T05:53:40.529Z,3.10
2023-01-27T05:54:40.509Z,3.13
2023-01-27T05:55:40.655Z,3.06
2023-01-27T05:56:42.483Z,3.13
2023-01-27T05:57:40.474Z,3.18
2023-01-27T05:58:40.467Z,3.05
2023-01-27T05:59:40.449Z,3.14
2023-01-27T06:00:40.420Z,2.99
2023-01-27T06:01:40.436Z,3.03
2023-01-27T06:02:40.556Z,3.06
2023-01-27T06:03:40.404Z,2.95
2023-01-27T06:04:40.406Z,2.92
2023-01-27T06:05:40.504Z,2.93
2023-01-27T06:06:40.368Z,3.02
2023-01-27T06:07:40.365Z,2.93
2023-01-27T06:08:40.337Z,3.08
2023-01-27T06:09:41.363Z,2.99
2023-01-27T06:10:40.332Z,3.11
2023-01-27T06:11:40.300Z,3.10
2023-01-27T06:12:40.921Z,3.05
2023-01-27T06:13:40.341Z,3.05
2023-01-27T06:14:40.457Z,3.13
2023-01-27T06:15:40.378Z,3.21
2023-01-27T06:16:40.423Z,3.20
2023-01-27T06:17:40.263Z,3.14
2023-01-27T06:18:40.243Z,3.11
2023-01-27T06:19:40.544Z,3.03
2023-01-27T06:20:40.931Z,3.13
2023-01-27T06:21:40.293Z,3.08
2023-01-27T06:22:40.333Z,3.13
2023-01-27T06:23:40.295Z,3.05
2023-01-27T06:24:40.261Z,3.13
2023-01-27T06:25:40.984Z,3.11
2023-01-27T06:26:40.247Z,3.13
2023-01-27T06:27:40.309Z,3.20
2023-01-27T06:28:40.168Z,3.17
2023-01-27T06:29:40.195Z,3.18
2023-01-27T06:30:40.174Z,3.20
2023-01-27T06:31:40.227Z,3.21
2023-01-27T06:32:40.147Z,3.21
2023-01-27T06:33:40.880Z,3.21
2023-01-27T06:34:41.126Z,3.15
2023-01-27T06:35:40.224Z,3.29
2023-01-27T06:36:40.092Z,3.18
2023-01-27T06:37:40.114Z,3.23
2023-01-27T06:38:40.069Z,3.24
2023-01-27T06:39:40.084Z,3.18
2023-01-27T06:40:40.204Z,3.21
2023-01-27T06:41:40.156Z,3.11
2023-01-27T06:42:40.003Z,3.10
2023-01-27T06:43:39.961Z,3.17
2023-01-27T06:44:39.930Z,3.24
2023-01-27T06:45:39.958Z,3.29
2023-01-27T06:46:40.028Z,3.06
2023-01-27T06:47:39.925Z,3.20
2023-01-27T06:48:39.902Z,3.18
2023-01-27T06:49:39.933Z,3.28
2023-01-27T06:50:39.889Z,3.26
2023-01-27T06:51:39.905Z,3.23
2023-01-27T06:52:39.855Z,3.20
2023-01-27T06:53:39.844Z,3.24
2023-01-27T06:54:39.825Z,3.26
2023-01-27T06:55:39.837Z,3.28
2023-01-27T06:56:39.799Z,3.26
2023-01-27T06:57:39.802Z,3.21
2023-01-27T06:58:39.779Z,3.24
2023-01-27T06:59:39.765Z,3.18
2023-01-27T07:00:39.768Z,3.21
2023-01-27T07:01:39.800Z,3.21
2023-01-27T07:02:39.804Z,3.24
2023-01-27T07:03:39.747Z,3.18
2023-01-27T07:04:39.711Z,3.21
2023-01-27T07:05:39.728Z,3.23
2023-01-27T07:06:39.703Z,3.26
2023-01-27T07:07:39.697Z,3.26
2023-01-27T07:08:39.668Z,3.31
2023-01-27T07:09:51.754Z,3.24
2023-01-27T07:10:40.648Z,3.31
2023-01-27T07:11:39.661Z,3.35
2023-01-27T07:12:39.661Z,3.35
2023-01-27T07:13:39.623Z,3.36
2023-01-27T07:14:39.613Z,3.33
2023-01-27T07:15:39.644Z,3.40
2023-01-27T07:16:39.633Z,3.36
2023-01-27T07:17:39.566Z,3.45
2023-01-27T07:18:39.561Z,3.31
2023-01-27T07:19:39.547Z,3.20
2023-01-27T07:20:50.255Z,3.23
2023-01-27T07:21:52.335Z,3.29
2023-01-27T07:22:39.548Z,3.21
2023-01-27T07:23:39.550Z,3.32
2023-01-27T07:24:39.518Z,3.18
2023-01-27T07:25:39.516Z,3.23
2023-01-27T07:26:39.486Z,3.23
2023-01-27T07:27:39.458Z,3.21
2023-01-27T07:28:39.514Z,3.23
2023-01-27T07:29:39.466Z,3.23
2023-01-27T07:30:39.542Z,3.28
2023-01-27T07:31:39.445Z,3.29
2023-01-27T07:32:39.455Z,3.23
2023-01-27T07:33:39.402Z,3.26
2023-01-27T07:34:39.395Z,3.29
2023-01-27T07:35:39.382Z,3.23
2023-01-27T07:36:39.364Z,3.32
2023-01-27T07:37:39.364Z,3.20
2023-01-27T07:38:39.352Z,3.28
2023-01-27T07:39:39.341Z,3.26
2023-01-27T07:40:39.325Z,3.23
2023-01-27T07:41:39.349Z,3.18
2023-01-27T07:42:39.331Z,3.33
2023-01-27T07:43:39.360Z,3.24
2023-01-27T07:44:39.309Z,3.20
2023-01-27T07:45:39.330Z,3.20
2023-01-27T07:46:39.246Z,3.20
2023-01-27T07:47:39.262Z,3.36
2023-01-27T07:48:39.232Z,3.35
2023-01-27T07:49:39.219Z,3.33
2023-01-27T07:50:39.223Z,3.48
2023-01-27T07:51:39.220Z,3.47
2023-01-27T07:52:39.201Z,3.36
2023-01-27T07:53:39.190Z,3.48
2023-01-27T07:54:39.200Z,3.33
2023-01-27T07:55:39.178Z,3.31
2023-01-27T07:56:39.156Z,3.40
2023-01-27T07:57:39.143Z,3.40
2023-01-27T07:58:39.126Z,3.45
2023-01-27T07:59:39.111Z,3.48
2023-01-27T08:00:39.122Z,3.55
2023-01-27T08:01:39.096Z,3.48
2023-01-27T08:02:39.086Z,3.43
2023-01-27T08:03:39.119Z,3.52
2023-01-27T08:04:52.188Z,3.52
2023-01-27T08:05:40.043Z,3.52
2023-01-27T08:06:39.034Z,3.57
2023-01-27T08:07:39.023Z,3.48
2023-01-27T08:08:39.035Z,3.51
2023-01-27T08:09:39.030Z,3.57
2023-01-27T08:10:38.987Z,3.57
2023-01-27T08:11:39.002Z,3.58
2023-01-27T08:12:38.963Z,3.62
2023-01-27T08:13:38.972Z,3.60
2023-01-27T08:14:38.957Z,3.61
2023-01-27T08:15:38.961Z,3.65
2023-01-27T08:16:39.926Z,3.68
2023-01-27T08:17:38.936Z,3.69
2023-01-27T08:18:38.924Z,3.66
2023-01-27T08:19:38.938Z,3.79
2023-01-27T08:20:38.912Z,3.79
2023-01-27T08:21:38.885Z,3.78
2023-01-27T08:22:38.885Z,3.75
2023-01-27T08:23:38.859Z,3.76
2023-01-27T08:24:38.853Z,3.68
2023-01-27T08:25:39.423Z,3.70
2023-01-27T08:26:38.826Z,3.65
2023-01-27T08:27:38.826Z,3.65
2023-01-27T08:28:38.813Z,3.69
2023-01-27T08:29:42.018Z,3.66
2023-01-27T08:30:38.832Z,3.79
2023-01-27T08:31:38.823Z,3.75
2023-01-27T08:32:38.768Z,3.76
2023-01-27T08:33:38.759Z,3.78
2023-01-27T08:34:38.736Z,3.75
2023-01-27T08:35:38.751Z,3.65
2023-01-27T08:36:38.752Z,3.66
2023-01-27T08:37:38.716Z,3.61
2023-01-27T08:38:38.716Z,3.65
2023-01-27T08:39:38.686Z,3.75
2023-01-27T08:40:38.707Z,3.78
2023-01-27T08:41:38.665Z,3.79
2023-01-27T08:42:38.689Z,3.84
2023-01-27T08:43:38.691Z,3.88
2023-01-27T08:44:38.660Z,3.96
2023-01-27T08:45:38.688Z,3.97
2023-01-27T08:46:38.604Z,3.88
2023-01-27T08:47:42.957Z,4.00
2023-01-27T08:48:38.607Z,4.05
2023-01-27T08:50:54.607Z,4.16
2023-01-27T08:51:53.567Z,4.18
2023-01-27T08:52:54.680Z,4.20
2023-01-27T08:55:03.293Z,4.32
2023-01-27T08:56:03.145Z,4.27
2023-01-27T08:58:15.886Z,4.37
2023-01-27T08:59:17.647Z,4.22
2023-01-27T09:00:16.939Z,4.20
2023-01-27T09:01:15.855Z,4.24
2023-01-27T09:02:18.634Z,4.26
2023-01-27T09:03:16.634Z,4.20
2023-01-27T09:04:15.825Z,4.34
2023-01-27T09:05:15.751Z,4.30
2023-01-27T09:06:16.691Z,4.36
2023-01-27T09:07:15.735Z,4.34
2023-01-27T09:08:16.604Z,4.27
2023-01-27T09:09:23.644Z,4.42
2023-01-27T09:10:16.647Z,4.45
2023-01-27T09:11:15.748Z,4.47
2023-01-27T09:12:15.648Z,4.54
2023-01-27T09:13:15.627Z,4.58
2023-01-27T09:14:15.635Z,4.45
2023-01-27T09:15:15.641Z,4.44
2023-01-27T09:16:15.708Z,4.48
2023-01-27T09:17:16.587Z,4.50
2023-01-27T09:18:15.598Z,4.54
2023-01-27T09:19:15.571Z,4.42
2023-01-27T09:20:15.963Z,4.37
2023-01-27T09:21:15.557Z,4.41
2023-01-27T09:22:15.534Z,4.60
2023-01-27T09:23:15.625Z,4.60
2023-01-27T09:24:15.606Z,4.62
2023-01-27T09:25:15.552Z,4.60
2023-01-27T09:26:15.531Z,4.69
2023-01-27T09:27:15.493Z,4.78
2023-01-27T09:28:15.539Z,4.75
2023-01-27T09:29:15.489Z,4.77
2023-01-27T09:30:15.829Z,4.75
2023-01-27T09:31:15.584Z,4.82
2023-01-27T09:32:15.514Z,4.75
2023-01-27T09:33:16.417Z,4.70
2023-01-27T09:34:15.413Z,4.63
2023-01-27T09:35:24.275Z,4.69
2023-01-27T09:36:23.970Z,4.73
2023-01-27T09:37:15.414Z,4.80
2023-01-27T09:38:36.467Z,4.86
2023-01-27T09:39:15.412Z,4.94
2023-01-27T09:40:17.183Z,4.94
2023-01-27T09:42:27.429Z,4.88
2023-01-27T09:43:27.862Z,4.80
2023-01-27T09:44:29.003Z,4.78
2023-01-27T09:45:27.326Z,4.89
2023-01-27T09:46:27.326Z,4.97
2023-01-27T09:48:38.905Z,5.28
2023-01-27T09:49:38.771Z,5.13
2023-01-27T09:50:38.756Z,5.20
2023-01-27T09:51:38.748Z,5.27
2023-01-27T09:52:47.545Z,5.35
2023-01-27T09:53:48.307Z,5.39
2023-01-27T09:54:39.306Z,5.35
2023-01-27T09:55:38.732Z,5.39
2023-01-27T09:56:38.836Z,5.56
2023-01-27T09:57:38.738Z,5.51
2023-01-27T09:58:38.686Z,5.57
2023-01-27T09:59:39.048Z,5.64
2023-01-27T10:00:38.653Z,5.57
2023-01-27T10:01:38.736Z,5.68
2023-01-27T10:02:38.615Z,5.72
2023-01-27T10:03:38.620Z,5.65
2023-01-27T10:04:38.670Z,5.71
2023-01-27T10:05:38.604Z,5.67
2023-01-27T10:06:38.585Z,5.81
2023-01-27T10:08:50.114Z,5.78
2023-01-27T10:09:49.752Z,5.76
2023-01-27T10:10:51.615Z,5.68
2023-01-27T10:11:50.701Z,5.67
2023-01-27T10:12:50.559Z,5.57
2023-01-27T10:13:51.595Z,5.57
2023-01-27T10:16:00.802Z,5.49
2023-01-27T10:17:00.998Z,5.39
2023-01-27T10:18:00.741Z,5.45
2023-01-27T10:19:00.757Z,5.39
2023-01-27T10:20:00.745Z,5.43
2023-01-27T10:21:01.652Z,5.35
2023-01-27T10:22:02.635Z,5.38
2023-01-27T10:23:00.667Z,5.42
2023-01-27T10:24:01.716Z,5.39
2023-01-27T10:25:01.628Z,5.33
2023-01-27T10:26:00.746Z,5.35
2023-01-27T10:27:00.650Z,5.22
2023-01-27T10:28:00.635Z,5.12
2023-01-27T10:29:00.598Z,5.22
2023-01-27T10:30:00.606Z,5.24
2023-01-27T10:31:00.608Z,5.22
2023-01-27T10:32:00.592Z,5.38
2023-01-27T10:33:00.584Z,5.27
2023-01-27T10:34:00.564Z,5.28
2023-01-27T10:36:11.753Z,5.36
2023-01-27T10:37:11.728Z,5.45
2023-01-27T10:38:14.558Z,5.33
2023-01-27T10:39:11.756Z,5.40
2023-01-27T10:40:12.099Z,5.39
2023-01-27T10:41:12.701Z,5.25
2023-01-27T10:42:11.720Z,5.20
2023-01-27T10:43:12.576Z,5.24
2023-01-27T10:44:11.678Z,5.22
2023-01-27T10:45:11.689Z,5.33
2023-01-27T10:46:11.734Z,5.33
2023-01-27T10:47:11.624Z,5.33
2023-01-27T10:48:12.059Z,5.33
2023-01-27T10:49:11.631Z,5.46
2023-01-27T10:50:11.918Z,5.39
2023-01-27T10:51:11.571Z,5.39
2023-01-27T10:52:11.556Z,5.56
2023-01-27T10:53:11.538Z,5.45
2023-01-27T10:54:11.612Z,5.53
2023-01-27T10:55:11.531Z,5.53
2023-01-27T10:56:11.545Z,5.57
2023-01-27T10:57:11.512Z,5.53
2023-01-27T10:58:11.515Z,5.65
2023-01-27T10:59:11.554Z,5.60
2023-01-27T11:00:37.986Z,5.67
2023-01-27T11:01:20.844Z,5.67
2023-01-27T11:02:12.519Z,5.75
2023-01-27T11:03:50.623Z,5.72
2023-01-27T11:04:11.746Z,5.76
2023-01-27T11:05:11.426Z,5.81
2023-01-27T11:06:11.458Z,5.78
2023-01-27T11:07:11.411Z,5.71
2023-01-27T11:08:11.405Z,5.61
2023-01-27T11:09:11.375Z,5.64
2023-01-27T11:10:11.677Z,5.61
2023-01-27T11:11:34.085Z,5.61
2023-01-27T11:12:11.395Z,5.53
2023-01-27T11:13:11.342Z,5.65
2023-01-27T11:14:11.316Z,5.54
2023-01-27T11:15:11.337Z,5.58
2023-01-27T11:16:11.371Z,5.56
2023-01-27T11:17:11.291Z,5.58
2023-01-27T11:18:11.317Z,5.61
2023-01-27T11:19:11.293Z,5.63
2023-01-27T11:20:11.720Z,5.57
2023-01-27T11:21:11.248Z,5.58
2023-01-27T11:22:11.372Z,5.56
2023-01-27T11:23:11.238Z,5.61
2023-01-27T11:24:11.225Z,5.58
2023-01-27T11:25:11.211Z,5.63
2023-01-27T11:26:11.215Z,5.60
2023-01-27T11:27:11.207Z,5.51
2023-01-27T11:28:11.190Z,5.49
2023-01-27T11:29:11.149Z,5.64
2023-01-27T11:30:11.324Z,5.57
2023-01-27T11:31:12.222Z,5.64
2023-01-27T11:32:11.218Z,5.72
2023-01-27T11:33:11.136Z,5.79
2023-01-27T11:34:11.105Z,5.83
2023-01-27T11:35:11.161Z,5.89
2023-01-27T11:36:11.084Z,5.82
2023-01-27T11:37:11.108Z,5.93
2023-01-27T11:38:15.709Z,5.93
2023-01-27T11:39:11.047Z,5.93
2023-01-27T11:40:11.238Z,5.97
2023-01-27T11:41:11.035Z,5.97
2023-01-27T11:42:11.027Z,5.93
2023-01-27T11:43:10.994Z,6.01
2023-01-27T11:44:11.003Z,6.06
2023-01-27T11:45:10.991Z,6.08
2023-01-27T11:46:11.079Z,6.06
2023-01-27T11:47:10.973Z,6.04
2023-01-27T11:48:10.945Z,6.14
2023-01-27T11:49:20.520Z,6.06
2023-01-27T11:50:19.916Z,6.12
2023-01-27T11:51:12.628Z,6.06
2023-01-27T11:52:10.920Z,6.08
2023-01-27T11:53:10.908Z,5.99
2023-01-27T11:54:10.883Z,6.06
2023-01-27T11:55:10.915Z,6.04
2023-01-27T11:56:10.892Z,5.96
2023-01-27T11:57:10.887Z,5.86
2023-01-27T11:58:11.039Z,5.90
2023-01-27T11:59:10.840Z,5.90
2023-01-27T12:00:10.993Z,5.96
2023-01-27T12:01:10.809Z,6.01
2023-01-27T12:02:10.796Z,5.93
2023-01-27T12:03:10.781Z,6.01
2023-01-27T12:04:10.797Z,5.97
2023-01-27T12:05:10.787Z,5.93
2023-01-27T12:06:10.772Z,5.91
2023-01-27T12:07:10.755Z,5.91
2023-01-27T12:08:10.723Z,5.96
2023-01-27T12:09:10.722Z,5.96
2023-01-27T12:10:10.854Z,5.96
2023-01-27T12:11:10.738Z,6.00
2023-01-27T12:12:10.716Z,5.99
2023-01-27T12:13:10.703Z,6.04
2023-01-27T12:14:10.678Z,5.94
2023-01-27T12:15:10.649Z,6.03
2023-01-27T12:16:10.721Z,5.93
2023-01-27T12:17:10.635Z,6.06
2023-01-27T12:18:10.679Z,6.01
2023-01-27T12:19:10.618Z,6.04
2023-01-27T12:20:10.614Z,6.09
2023-01-27T12:21:10.873Z,6.00
2023-01-27T12:22:10.596Z,6.06
2023-01-27T12:23:10.611Z,6.06
2023-01-27T12:24:10.611Z,6.19
2023-01-27T12:25:10.546Z,6.11
2023-01-27T12:26:10.539Z,6.14
2023-01-27T12:27:10.540Z,6.06
2023-01-27T12:28:10.531Z,6.09
2023-01-27T12:29:10.507Z,6.15
2023-01-27T12:30:10.595Z,6.12
2023-01-27T12:31:10.601Z,6.06
2023-01-27T12:32:10.519Z,6.08
2023-01-27T12:33:10.472Z,6.09
2023-01-27T12:34:10.463Z,6.09
2023-01-27T12:35:13.193Z,6.03
2023-01-27T12:38:51.350Z,6.14
2023-01-27T12:39:53.533Z,6.08
2023-01-27T12:40:51.344Z,6.14
2023-01-27T12:41:51.486Z,6.17
2023-01-27T12:42:54.160Z,6.04
2023-01-27T12:43:57.061Z,6.11
2023-01-27T12:45:57.111Z,6.11
2023-01-27T12:46:58.449Z,6.03
2023-01-27T12:49:40.251Z,6.15
2023-01-27T13:03:46.830Z,6.19
2023-01-27T13:04:46.680Z,6.17
2023-01-27T13:06:05.401Z,6.11
2023-01-27T13:08:20.194Z,6.22
2023-01-27T13:20:16.770Z,6.34
2023-01-27T13:24:02.695Z,6.38
2023-01-27T13:25:02.602Z,6.36
2023-01-27T13:33:48.681Z,6.70
2023-01-27T13:34:43.242Z,6.73
2023-01-27T13:35:43.219Z,6.74
2023-01-27T13:36:43.204Z,6.70
2023-01-27T13:37:43.238Z,6.71
2023-01-27T13:38:43.191Z,6.69
2023-01-27T13:39:43.159Z,6.73
2023-01-27T13:40:43.183Z,6.69
2023-01-27T13:41:43.139Z,6.71
2023-01-27T13:42:43.146Z,6.66
2023-01-27T13:43:43.135Z,6.61
2023-01-27T13:44:43.105Z,6.56
2023-01-27T13:45:43.116Z,6.59
2023-01-27T13:46:43.116Z,6.59
2023-01-27T13:47:43.122Z,6.54
2023-01-27T13:48:43.070Z,6.61
2023-01-27T13:49:43.070Z,6.56
2023-01-27T13:50:43.057Z,6.51
2023-01-27T13:51:43.048Z,6.58
2023-01-27T13:52:43.052Z,6.51
2023-01-27T13:53:43.066Z,6.49
2023-01-27T13:54:43.013Z,6.44
2023-01-27T13:55:42.989Z,6.49
2023-01-27T13:56:42.972Z,6.54
2023-01-27T13:57:42.988Z,6.44
2023-01-27T13:58:44.492Z,6.36
2023-01-27T13:59:42.965Z,6.34
2023-01-27T14:00:42.928Z,6.34
2023-01-27T14:01:43.011Z,6.34
2023-01-27T14:02:42.927Z,6.30
2023-01-27T14:03:42.917Z,6.36
2023-01-27T14:04:42.950Z,6.33
2023-01-27T14:05:42.883Z,6.28
2023-01-27T14:06:42.905Z,6.31
2023-01-27T14:07:42.884Z,6.27
2023-01-27T14:08:42.850Z,6.22
2023-01-27T14:09:42.836Z,6.33
2023-01-27T14:10:42.838Z,6.22
2023-01-27T14:11:42.839Z,6.27
2023-01-27T14:12:42.818Z,6.27
2023-01-27T14:13:42.878Z,6.21
2023-01-27T14:14:56.110Z,6.25
2023-01-27T14:15:43.832Z,6.27
2023-01-27T14:16:42.765Z,6.27
2023-01-27T14:17:42.815Z,6.25
2023-01-27T14:18:42.779Z,6.28
2023-01-27T14:19:42.773Z,6.25
2023-01-27T14:20:42.738Z,6.30
2023-01-27T14:21:46.855Z,6.27